sensor_id;sensor_type;location;lat;lon;timestamp;P1;durP1;ratioP1;P2;durP2;ratioP2
77571;SDS011;67214;47.454;18.966;2023-06-10T00:01:45;16.15;;;11.85;;
77571;SDS011;67214;47.454;18.966;2023-06-10T00:04:16;12.55;;;10.30;;
77571;SDS011;67214;47.454;18.966;2023-06-10T00:06:44;19.50;;;11.22;;
77571;SDS011;67214;47.454;18.966;2023-06-10T00:09:13;14.10;;;10.78;;
77571;SDS011;67214;47.454;18.966;2023-06-10T00:11:41;16.12;;;10.78;;
77571;SDS011;67214;47.454;18.966;2023-06-10T00:14:08;15.20;;;10.90;;
77571;SDS011;67214;47.454;18.966;2023-06-10T00:16:36;17.95;;;11.88;;
77571;SDS011;67214;47.454;18.966;2023-06-10T00:19:04;14.53;;;11.20;;
77571;SDS011;67214;47.454;18.966;2023-06-10T00:21:34;21.07;;;11.33;;
77571;SDS011;67214;47.454;18.966;2023-06-10T00:24:09;15.83;;;11.28;;
77571;SDS011;67214;47.454;18.966;2023-06-10T00:26:38;17.85;;;11.73;;
77571;SDS011;67214;47.454;18.966;2023-06-10T00:29:07;17.80;;;12.82;;
77571;SDS011;67214;47.454;18.966;2023-06-10T00:31:35;16.25;;;11.78;;
77571;SDS011;67214;47.454;18.966;2023-06-10T00:34:04;17.02;;;11.65;;
77571;SDS011;67214;47.454;18.966;2023-06-10T00:36:31;19.27;;;12.73;;
77571;SDS011;67214;47.454;18.966;2023-06-10T00:38:59;14.05;;;11.15;;
77571;SDS011;67214;47.454;18.966;2023-06-10T00:41:26;16.27;;;11.55;;
77571;SDS011;67214;47.454;18.966;2023-06-10T00:43:54;18.20;;;13.88;;
77571;SDS011;67214;47.454;18.966;2023-06-10T00:46:21;16.65;;;12.78;;
77571;SDS011;67214;47.454;18.966;2023-06-10T00:48:52;14.70;;;12.20;;
77571;SDS011;67214;47.454;18.966;2023-06-10T00:51:19;15.88;;;12.18;;
77571;SDS011;67214;47.454;18.966;2023-06-10T00:53:48;17.48;;;12.80;;
77571;SDS011;67214;47.454;18.966;2023-06-10T00:56:16;17.65;;;13.03;;
77571;SDS011;67214;47.454;18.966;2023-06-10T00:58:44;18.82;;;12.30;;
77571;SDS011;67214;47.454;18.966;2023-06-10T01:01:11;14.35;;;11.10;;
77571;SDS011;67214;47.454;18.966;2023-06-10T01:03:39;18.10;;;11.95;;
77571;SDS011;67214;47.454;18.966;2023-06-10T01:06:19;15.28;;;11.65;;
77571;SDS011;67214;47.454;18.966;2023-06-10T01:08:50;16.70;;;11.15;;
77571;SDS011;67214;47.454;18.966;2023-06-10T01:11:29;14.40;;;10.80;;
77571;SDS011;67214;47.454;18.966;2023-06-10T01:14:05;16.65;;;11.50;;
77571;SDS011;67214;47.454;18.966;2023-06-10T01:16:34;13.58;;;10.53;;
77571;SDS011;67214;47.454;18.966;2023-06-10T01:19:02;12.78;;;10.78;;
77571;SDS011;67214;47.454;18.966;2023-06-10T01:21:30;14.87;;;10.70;;
77571;SDS011;67214;47.454;18.966;2023-06-10T01:23:57;13.93;;;10.65;;
77571;SDS011;67214;47.454;18.966;2023-06-10T01:26:28;14.38;;;10.72;;
77571;SDS011;67214;47.454;18.966;2023-06-10T01:29:03;15.35;;;11.73;;
77571;SDS011;67214;47.454;18.966;2023-06-10T01:31:49;14.73;;;10.63;;
77571;SDS011;67214;47.454;18.966;2023-06-10T01:34:21;12.58;;;11.15;;
77571;SDS011;67214;47.454;18.966;2023-06-10T01:36:51;13.70;;;11.57;;
77571;SDS011;67214;47.454;18.966;2023-06-10T01:39:20;16.95;;;11.97;;
77571;SDS011;67214;47.454;18.966;2023-06-10T01:41:51;16.62;;;11.70;;
77571;SDS011;67214;47.454;18.966;2023-06-10T01:44:19;13.60;;;11.60;;
77571;SDS011;67214;47.454;18.966;2023-06-10T01:46:49;14.03;;;11.35;;
77571;SDS011;67214;47.454;18.966;2023-06-10T01:49:16;13.65;;;11.20;;
77571;SDS011;67214;47.454;18.966;2023-06-10T01:51:44;16.87;;;10.55;;
77571;SDS011;67214;47.454;18.966;2023-06-10T01:54:11;14.07;;;10.93;;
77571;SDS011;67214;47.454;18.966;2023-06-10T01:56:39;16.67;;;11.30;;
77571;SDS011;67214;47.454;18.966;2023-06-10T01:59:06;13.35;;;11.18;;
77571;SDS011;67214;47.454;18.966;2023-06-10T02:01:34;15.18;;;11.00;;
77571;SDS011;67214;47.454;18.966;2023-06-10T02:04:01;13.83;;;9.98;;
77571;SDS011;67214;47.454;18.966;2023-06-10T02:06:29;12.53;;;9.85;;
77571;SDS011;67214;47.454;18.966;2023-06-10T02:08:56;13.75;;;10.80;;
77571;SDS011;67214;47.454;18.966;2023-06-10T02:11:24;11.33;;;9.50;;
77571;SDS011;67214;47.454;18.966;2023-06-10T02:13:52;15.70;;;10.28;;
77571;SDS011;67214;47.454;18.966;2023-06-10T02:16:19;11.93;;;9.95;;
77571;SDS011;67214;47.454;18.966;2023-06-10T02:18:47;12.65;;;10.28;;
77571;SDS011;67214;47.454;18.966;2023-06-10T02:21:14;12.65;;;9.95;;
77571;SDS011;67214;47.454;18.966;2023-06-10T02:23:41;16.93;;;9.68;;
77571;SDS011;67214;47.454;18.966;2023-06-10T02:26:09;14.23;;;10.28;;
77571;SDS011;67214;47.454;18.966;2023-06-10T02:28:36;16.23;;;9.30;;
77571;SDS011;67214;47.454;18.966;2023-06-10T02:31:04;12.75;;;9.30;;
77571;SDS011;67214;47.454;18.966;2023-06-10T02:33:33;12.07;;;9.85;;
77571;SDS011;67214;47.454;18.966;2023-06-10T02:36:00;13.80;;;11.25;;
77571;SDS011;67214;47.454;18.966;2023-06-10T02:38:28;18.15;;;11.35;;
77571;SDS011;67214;47.454;18.966;2023-06-10T02:40:55;17.85;;;11.22;;
77571;SDS011;67214;47.454;18.966;2023-06-10T02:43:23;17.57;;;11.97;;
77571;SDS011;67214;47.454;18.966;2023-06-10T02:45:50;18.75;;;11.40;;
77571;SDS011;67214;47.454;18.966;2023-06-10T02:48:18;13.43;;;11.18;;
77571;SDS011;67214;47.454;18.966;2023-06-10T02:50:45;14.98;;;10.72;;
77571;SDS011;67214;47.454;18.966;2023-06-10T02:53:13;16.07;;;11.68;;
77571;SDS011;67214;47.454;18.966;2023-06-10T02:55:40;13.03;;;9.70;;
77571;SDS011;67214;47.454;18.966;2023-06-10T02:58:08;14.18;;;11.18;;
77571;SDS011;67214;47.454;18.966;2023-06-10T03:00:36;12.25;;;10.70;;
77571;SDS011;67214;47.454;18.966;2023-06-10T03:03:04;14.58;;;10.53;;
77571;SDS011;67214;47.454;18.966;2023-06-10T03:05:32;17.42;;;10.48;;
77571;SDS011;67214;47.454;18.966;2023-06-10T03:08:00;13.58;;;10.88;;
77571;SDS011;67214;47.454;18.966;2023-06-10T03:10:27;12.43;;;9.98;;
77571;SDS011;67214;47.454;18.966;2023-06-10T03:12:55;12.25;;;10.38;;
77571;SDS011;67214;47.454;18.966;2023-06-10T03:15:22;12.82;;;10.50;;
77571;SDS011;67214;47.454;18.966;2023-06-10T03:17:51;13.13;;;9.93;;
77571;SDS011;67214;47.454;18.966;2023-06-10T03:20:18;11.97;;;9.65;;
77571;SDS011;67214;47.454;18.966;2023-06-10T03:22:47;12.47;;;10.72;;
77571;SDS011;67214;47.454;18.966;2023-06-10T03:25:15;12.95;;;10.72;;
77571;SDS011;67214;47.454;18.966;2023-06-10T03:27:42;18.50;;;9.93;;
77571;SDS011;67214;47.454;18.966;2023-06-10T03:30:10;16.70;;;10.88;;
77571;SDS011;67214;47.454;18.966;2023-06-10T03:32:39;15.28;;;10.48;;
77571;SDS011;67214;47.454;18.966;2023-06-10T03:35:06;17.20;;;9.75;;
77571;SDS011;67214;47.454;18.966;2023-06-10T03:37:35;13.20;;;10.70;;
77571;SDS011;67214;47.454;18.966;2023-06-10T03:40:02;11.40;;;9.78;;
77571;SDS011;67214;47.454;18.966;2023-06-10T03:42:31;14.05;;;10.72;;
77571;SDS011;67214;47.454;18.966;2023-06-10T03:44:58;13.45;;;10.93;;
77571;SDS011;67214;47.454;18.966;2023-06-10T03:47:26;12.88;;;11.10;;
77571;SDS011;67214;47.454;18.966;2023-06-10T03:49:53;11.93;;;10.60;;
77571;SDS011;67214;47.454;18.966;2023-06-10T03:52:21;14.73;;;10.93;;
77571;SDS011;67214;47.454;18.966;2023-06-10T03:54:48;12.18;;;10.05;;
77571;SDS011;67214;47.454;18.966;2023-06-10T03:57:16;13.95;;;9.83;;
77571;SDS011;67214;47.454;18.966;2023-06-10T03:59:43;19.57;;;12.43;;
77571;SDS011;67214;47.454;18.966;2023-06-10T04:02:11;16.15;;;13.00;;
77571;SDS011;67214;47.454;18.966;2023-06-10T04:04:38;18.37;;;12.30;;
77571;SDS011;67214;47.454;18.966;2023-06-10T04:07:06;16.95;;;12.85;;
77571;SDS011;67214;47.454;18.966;2023-06-10T04:09:34;17.05;;;13.00;;
77571;SDS011;67214;47.454;18.966;2023-06-10T04:12:02;18.40;;;12.90;;
77571;SDS011;67214;47.454;18.966;2023-06-10T04:14:32;24.05;;;16.35;;
77571;SDS011;67214;47.454;18.966;2023-06-10T04:17:01;23.67;;;16.07;;
77571;SDS011;67214;47.454;18.966;2023-06-10T04:19:29;20.05;;;14.30;;
77571;SDS011;67214;47.454;18.966;2023-06-10T04:21:56;28.52;;;15.25;;
77571;SDS011;67214;47.454;18.966;2023-06-10T04:24:24;17.85;;;14.68;;
77571;SDS011;67214;47.454;18.966;2023-06-10T04:26:51;21.07;;;14.90;;
77571;SDS011;67214;47.454;18.966;2023-06-10T04:29:19;16.02;;;14.10;;
77571;SDS011;67214;47.454;18.966;2023-06-10T04:31:46;19.82;;;13.40;;
77571;SDS011;67214;47.454;18.966;2023-06-10T04:34:14;16.48;;;13.90;;
77571;SDS011;67214;47.454;18.966;2023-06-10T04:36:41;16.97;;;13.60;;
77571;SDS011;67214;47.454;18.966;2023-06-10T04:39:09;17.23;;;14.25;;
77571;SDS011;67214;47.454;18.966;2023-06-10T04:41:37;17.07;;;13.88;;
77571;SDS011;67214;47.454;18.966;2023-06-10T04:44:04;21.60;;;15.40;;
77571;SDS011;67214;47.454;18.966;2023-06-10T04:46:31;19.35;;;15.23;;
77571;SDS011;67214;47.454;18.966;2023-06-10T04:48:59;20.00;;;15.43;;
77571;SDS011;67214;47.454;18.966;2023-06-10T04:51:27;15.83;;;14.00;;
77571;SDS011;67214;47.454;18.966;2023-06-10T04:53:54;15.03;;;12.95;;
77571;SDS011;67214;47.454;18.966;2023-06-10T04:56:22;17.82;;;13.48;;
77571;SDS011;67214;47.454;18.966;2023-06-10T04:58:49;14.90;;;13.25;;
77571;SDS011;67214;47.454;18.966;2023-06-10T05:01:17;16.42;;;12.78;;
77571;SDS011;67214;47.454;18.966;2023-06-10T05:03:45;17.40;;;12.20;;
77571;SDS011;67214;47.454;18.966;2023-06-10T05:06:12;13.20;;;11.80;;
77571;SDS011;67214;47.454;18.966;2023-06-10T05:08:39;13.55;;;11.55;;
77571;SDS011;67214;47.454;18.966;2023-06-10T05:11:07;12.20;;;11.00;;
77571;SDS011;67214;47.454;18.966;2023-06-10T05:13:34;13.20;;;8.00;;
77571;SDS011;67214;47.454;18.966;2023-06-10T05:16:02;10.48;;;8.53;;
77571;SDS011;67214;47.454;18.966;2023-06-10T05:18:30;8.30;;;6.58;;
77571;SDS011;67214;47.454;18.966;2023-06-10T05:20:57;7.70;;;6.80;;
77571;SDS011;67214;47.454;18.966;2023-06-10T05:23:25;6.35;;;4.65;;
77571;SDS011;67214;47.454;18.966;2023-06-10T05:25:52;5.12;;;4.62;;
77571;SDS011;67214;47.454;18.966;2023-06-10T05:28:19;8.33;;;4.70;;
77571;SDS011;67214;47.454;18.966;2023-06-10T05:30:47;5.33;;;4.20;;
77571;SDS011;67214;47.454;18.966;2023-06-10T05:33:15;9.58;;;4.72;;
77571;SDS011;67214;47.454;18.966;2023-06-10T05:35:42;4.87;;;4.25;;
77571;SDS011;67214;47.454;18.966;2023-06-10T05:38:10;5.45;;;4.28;;
77571;SDS011;67214;47.454;18.966;2023-06-10T05:40:37;6.90;;;4.53;;
77571;SDS011;67214;47.454;18.966;2023-06-10T05:43:05;5.97;;;3.85;;
77571;SDS011;67214;47.454;18.966;2023-06-10T05:45:32;9.00;;;4.45;;
77571;SDS011;67214;47.454;18.966;2023-06-10T05:47:59;6.75;;;4.75;;
77571;SDS011;67214;47.454;18.966;2023-06-10T05:50:27;5.35;;;4.10;;
77571;SDS011;67214;47.454;18.966;2023-06-10T05:52:54;4.70;;;4.30;;
77571;SDS011;67214;47.454;18.966;2023-06-10T05:55:22;6.72;;;4.35;;
77571;SDS011;67214;47.454;18.966;2023-06-10T05:57:57;6.53;;;3.72;;
77571;SDS011;67214;47.454;18.966;2023-06-10T06:00:27;5.45;;;3.98;;
77571;SDS011;67214;47.454;18.966;2023-06-10T06:02:54;5.42;;;3.87;;
77571;SDS011;67214;47.454;18.966;2023-06-10T06:05:22;6.40;;;4.37;;
77571;SDS011;67214;47.454;18.966;2023-06-10T06:07:50;5.30;;;4.60;;
77571;SDS011;67214;47.454;18.966;2023-06-10T06:10:18;5.08;;;3.85;;
77571;SDS011;67214;47.454;18.966;2023-06-10T06:12:45;5.45;;;4.10;;
77571;SDS011;67214;47.454;18.966;2023-06-10T06:15:13;8.40;;;4.97;;
77571;SDS011;67214;47.454;18.966;2023-06-10T06:17:40;7.00;;;4.87;;
77571;SDS011;67214;47.454;18.966;2023-06-10T06:20:08;6.25;;;4.22;;
77571;SDS011;67214;47.454;18.966;2023-06-10T06:22:36;5.83;;;4.15;;
77571;SDS011;67214;47.454;18.966;2023-06-10T06:25:03;6.05;;;4.33;;
77571;SDS011;67214;47.454;18.966;2023-06-10T06:27:31;8.05;;;4.37;;
77571;SDS011;67214;47.454;18.966;2023-06-10T06:29:58;7.00;;;4.70;;
77571;SDS011;67214;47.454;18.966;2023-06-10T06:32:26;8.88;;;4.58;;
77571;SDS011;67214;47.454;18.966;2023-06-10T06:34:53;6.45;;;3.60;;
77571;SDS011;67214;47.454;18.966;2023-06-10T06:37:21;8.25;;;4.05;;
77571;SDS011;67214;47.454;18.966;2023-06-10T06:39:50;6.70;;;3.92;;
77571;SDS011;67214;47.454;18.966;2023-06-10T06:42:19;6.25;;;4.62;;
77571;SDS011;67214;47.454;18.966;2023-06-10T06:44:47;6.78;;;3.42;;
77571;SDS011;67214;47.454;18.966;2023-06-10T06:47:14;4.83;;;3.60;;
77571;SDS011;67214;47.454;18.966;2023-06-10T06:49:43;7.22;;;4.22;;
77571;SDS011;67214;47.454;18.966;2023-06-10T06:52:11;6.30;;;4.10;;
77571;SDS011;67214;47.454;18.966;2023-06-10T06:54:39;5.58;;;3.77;;
77571;SDS011;67214;47.454;18.966;2023-06-10T06:57:06;7.47;;;4.12;;
77571;SDS011;67214;47.454;18.966;2023-06-10T06:59:34;5.60;;;3.90;;
77571;SDS011;67214;47.454;18.966;2023-06-10T07:02:02;6.78;;;4.60;;
77571;SDS011;67214;47.454;18.966;2023-06-10T07:04:30;7.58;;;4.05;;
77571;SDS011;67214;47.454;18.966;2023-06-10T07:06:57;4.92;;;3.95;;
77571;SDS011;67214;47.454;18.966;2023-06-10T07:09:24;5.85;;;4.15;;
77571;SDS011;67214;47.454;18.966;2023-06-10T07:11:53;6.80;;;4.72;;
77571;SDS011;67214;47.454;18.966;2023-06-10T07:14:21;5.08;;;4.30;;
77571;SDS011;67214;47.454;18.966;2023-06-10T07:16:48;7.78;;;4.75;;
77571;SDS011;67214;47.454;18.966;2023-06-10T07:19:16;4.65;;;4.10;;
77571;SDS011;67214;47.454;18.966;2023-06-10T07:21:44;9.05;;;5.08;;
77571;SDS011;67214;47.454;18.966;2023-06-10T07:24:11;4.95;;;4.45;;
77571;SDS011;67214;47.454;18.966;2023-06-10T07:26:39;6.08;;;5.05;;
77571;SDS011;67214;47.454;18.966;2023-06-10T07:29:06;5.42;;;4.75;;
77571;SDS011;67214;47.454;18.966;2023-06-10T07:31:33;6.62;;;4.90;;
77571;SDS011;67214;47.454;18.966;2023-06-10T07:34:01;5.67;;;5.10;;
77571;SDS011;67214;47.454;18.966;2023-06-10T07:36:29;6.03;;;5.35;;
77571;SDS011;67214;47.454;18.966;2023-06-10T07:38:56;5.72;;;5.10;;
77571;SDS011;67214;47.454;18.966;2023-06-10T07:41:24;6.08;;;5.17;;
77571;SDS011;67214;47.454;18.966;2023-06-10T07:43:54;5.97;;;5.37;;
77571;SDS011;67214;47.454;18.966;2023-06-10T07:46:22;5.75;;;5.17;;
77571;SDS011;67214;47.454;18.966;2023-06-10T07:48:53;6.10;;;5.33;;
77571;SDS011;67214;47.454;18.966;2023-06-10T07:51:21;6.15;;;5.00;;
77571;SDS011;67214;47.454;18.966;2023-06-10T07:53:49;8.45;;;4.70;;
77571;SDS011;67214;47.454;18.966;2023-06-10T07:56:16;7.17;;;5.30;;
77571;SDS011;67214;47.454;18.966;2023-06-10T07:58:44;5.40;;;4.90;;
77571;SDS011;67214;47.454;18.966;2023-06-10T08:01:11;5.17;;;4.67;;
77571;SDS011;67214;47.454;18.966;2023-06-10T08:03:38;5.67;;;5.17;;
77571;SDS011;67214;47.454;18.966;2023-06-10T08:06:06;4.83;;;4.42;;
77571;SDS011;67214;47.454;18.966;2023-06-10T08:08:33;6.67;;;4.95;;
77571;SDS011;67214;47.454;18.966;2023-06-10T08:11:02;5.67;;;4.97;;
77571;SDS011;67214;47.454;18.966;2023-06-10T08:13:31;7.80;;;5.45;;
77571;SDS011;67214;47.454;18.966;2023-06-10T08:15:58;5.33;;;4.83;;
77571;SDS011;67214;47.454;18.966;2023-06-10T08:18:26;6.35;;;5.00;;
77571;SDS011;67214;47.454;18.966;2023-06-10T08:20:53;6.10;;;4.62;;
77571;SDS011;67214;47.454;18.966;2023-06-10T08:23:21;5.87;;;5.08;;
77571;SDS011;67214;47.454;18.966;2023-06-10T08:25:48;5.22;;;4.83;;
77571;SDS011;67214;47.454;18.966;2023-06-10T08:28:16;6.05;;;4.78;;
77571;SDS011;67214;47.454;18.966;2023-06-10T08:30:44;5.28;;;4.85;;
77571;SDS011;67214;47.454;18.966;2023-06-10T08:33:12;6.72;;;5.40;;
77571;SDS011;67214;47.454;18.966;2023-06-10T08:35:39;5.78;;;5.28;;
77571;SDS011;67214;47.454;18.966;2023-06-10T08:38:07;6.05;;;5.50;;
77571;SDS011;67214;47.454;18.966;2023-06-10T08:40:34;6.17;;;5.62;;
77571;SDS011;67214;47.454;18.966;2023-06-10T08:45:35;5.70;;;5.12;;
77571;SDS011;67214;47.454;18.966;2023-06-10T08:48:03;6.92;;;5.20;;
77571;SDS011;67214;47.454;18.966;2023-06-10T08:50:35;6.08;;;5.42;;
77571;SDS011;67214;47.454;18.966;2023-06-10T08:53:06;5.03;;;4.53;;
77571;SDS011;67214;47.454;18.966;2023-06-10T08:55:37;5.45;;;4.95;;
77571;SDS011;67214;47.454;18.966;2023-06-10T08:58:07;6.92;;;5.33;;
77571;SDS011;67214;47.454;18.966;2023-06-10T09:00:35;5.85;;;5.25;;
77571;SDS011;67214;47.454;18.966;2023-06-10T09:03:03;6.53;;;5.92;;
77571;SDS011;67214;47.454;18.966;2023-06-10T09:05:33;6.67;;;5.95;;
77571;SDS011;67214;47.454;18.966;2023-06-10T09:08:03;5.80;;;5.20;;
77571;SDS011;67214;47.454;18.966;2023-06-10T09:10:33;6.47;;;5.67;;
77571;SDS011;67214;47.454;18.966;2023-06-10T09:13:01;6.55;;;5.30;;
77571;SDS011;67214;47.454;18.966;2023-06-10T09:15:28;5.78;;;4.22;;
77571;SDS011;67214;47.454;18.966;2023-06-10T09:17:56;4.92;;;4.33;;
77571;SDS011;67214;47.454;18.966;2023-06-10T09:20:25;5.58;;;5.08;;
77571;SDS011;67214;47.454;18.966;2023-06-10T09:22:53;5.47;;;4.97;;
77571;SDS011;67214;47.454;18.966;2023-06-10T09:25:20;6.00;;;4.95;;
77571;SDS011;67214;47.454;18.966;2023-06-10T09:27:51;5.53;;;5.03;;
77571;SDS011;67214;47.454;18.966;2023-06-10T09:30:26;6.05;;;5.15;;
77571;SDS011;67214;47.454;18.966;2023-06-10T09:33:00;5.37;;;4.75;;
77571;SDS011;67214;47.454;18.966;2023-06-10T09:35:30;6.80;;;4.58;;
77571;SDS011;67214;47.454;18.966;2023-06-10T09:37:58;5.45;;;4.95;;
77571;SDS011;67214;47.454;18.966;2023-06-10T09:40:27;5.72;;;4.67;;
77571;SDS011;67214;47.454;18.966;2023-06-10T09:42:56;4.42;;;4.03;;
77571;SDS011;67214;47.454;18.966;2023-06-10T09:45:31;5.08;;;4.67;;
77571;SDS011;67214;47.454;18.966;2023-06-10T09:47:59;6.87;;;5.08;;
77571;SDS011;67214;47.454;18.966;2023-06-10T09:50:27;5.70;;;5.10;;
77571;SDS011;67214;47.454;18.966;2023-06-10T09:52:56;5.83;;;5.20;;
77571;SDS011;67214;47.454;18.966;2023-06-10T09:55:24;5.85;;;5.20;;
77571;SDS011;67214;47.454;18.966;2023-06-10T09:57:53;5.00;;;4.58;;
77571;SDS011;67214;47.454;18.966;2023-06-10T10:00:21;5.35;;;4.78;;
77571;SDS011;67214;47.454;18.966;2023-06-10T10:02:52;5.70;;;5.20;;
77571;SDS011;67214;47.454;18.966;2023-06-10T10:05:21;6.92;;;5.50;;
77571;SDS011;67214;47.454;18.966;2023-06-10T10:07:49;5.60;;;5.12;;
77571;SDS011;67214;47.454;18.966;2023-06-10T10:10:19;6.60;;;5.97;;
77571;SDS011;67214;47.454;18.966;2023-06-10T10:12:47;5.83;;;5.33;;
77571;SDS011;67214;47.454;18.966;2023-06-10T10:15:17;5.85;;;5.35;;
77571;SDS011;67214;47.454;18.966;2023-06-10T10:20:26;8.25;;;6.47;;
77571;SDS011;67214;47.454;18.966;2023-06-10T10:22:56;8.48;;;7.65;;
77571;SDS011;67214;47.454;18.966;2023-06-10T10:25:28;10.00;;;9.00;;
77571;SDS011;67214;47.454;18.966;2023-06-10T10:28:10;12.28;;;11.20;;
77571;SDS011;67214;47.454;18.966;2023-06-10T10:30:52;12.98;;;11.88;;
77571;SDS011;67214;47.454;18.966;2023-06-10T10:33:19;14.15;;;12.73;;
77571;SDS011;67214;47.454;18.966;2023-06-10T10:35:49;13.62;;;12.23;;
77571;SDS011;67214;47.454;18.966;2023-06-10T10:38:17;13.38;;;12.28;;
77571;SDS011;67214;47.454;18.966;2023-06-10T10:40:45;13.98;;;12.78;;
77571;SDS011;67214;47.454;18.966;2023-06-10T10:43:14;13.95;;;12.53;;
77571;SDS011;67214;47.454;18.966;2023-06-10T10:45:42;14.43;;;13.00;;
77571;SDS011;67214;47.454;18.966;2023-06-10T10:48:12;13.60;;;12.30;;
77571;SDS011;67214;47.454;18.966;2023-06-10T10:50:41;15.10;;;12.65;;
77571;SDS011;67214;47.454;18.966;2023-06-10T10:53:08;13.10;;;11.90;;
77571;SDS011;67214;47.454;18.966;2023-06-10T10:55:36;13.25;;;11.50;;
77571;SDS011;67214;47.454;18.966;2023-06-10T10:58:04;11.78;;;10.72;;
77571;SDS011;67214;47.454;18.966;2023-06-10T11:00:36;11.90;;;10.70;;
77571;SDS011;67214;47.454;18.966;2023-06-10T11:03:06;10.40;;;9.30;;
77571;SDS011;67214;47.454;18.966;2023-06-10T11:05:38;10.55;;;9.63;;
77571;SDS011;67214;47.454;18.966;2023-06-10T11:08:09;12.47;;;10.75;;
77571;SDS011;67214;47.454;18.966;2023-06-10T11:10:38;9.90;;;9.10;;
77571;SDS011;67214;47.454;18.966;2023-06-10T11:13:18;11.00;;;9.93;;
77571;SDS011;67214;47.454;18.966;2023-06-10T11:15:47;10.28;;;9.33;;
77571;SDS011;67214;47.454;18.966;2023-06-10T11:18:23;11.10;;;10.13;;
77571;SDS011;67214;47.454;18.966;2023-06-10T11:20:58;10.20;;;9.30;;
77571;SDS011;67214;47.454;18.966;2023-06-10T11:33:54;8.98;;;7.40;;
77571;SDS011;67214;47.454;18.966;2023-06-10T11:36:23;8.63;;;7.92;;
77571;SDS011;67214;47.454;18.966;2023-06-10T11:38:58;9.25;;;8.35;;
77571;SDS011;67214;47.454;18.966;2023-06-10T11:41:27;9.73;;;8.85;;
77571;SDS011;67214;47.454;18.966;2023-06-10T11:44:03;8.15;;;7.42;;
77571;SDS011;67214;47.454;18.966;2023-06-10T11:46:35;8.80;;;8.10;;
77571;SDS011;67214;47.454;18.966;2023-06-10T11:49:03;10.28;;;9.38;;
77571;SDS011;67214;47.454;18.966;2023-06-10T11:51:35;10.98;;;10.03;;
77571;SDS011;67214;47.454;18.966;2023-06-10T11:54:08;11.90;;;10.70;;
77571;SDS011;67214;47.454;18.966;2023-06-10T11:56:36;11.12;;;10.28;;
77571;SDS011;67214;47.454;18.966;2023-06-10T11:59:04;12.30;;;11.30;;
77571;SDS011;67214;47.454;18.966;2023-06-10T12:01:42;11.28;;;10.30;;
77571;SDS011;67214;47.454;18.966;2023-06-10T12:04:12;11.60;;;10.53;;
77571;SDS011;67214;47.454;18.966;2023-06-10T12:06:42;9.20;;;8.43;;
77571;SDS011;67214;47.454;18.966;2023-06-10T12:11:51;10.98;;;9.98;;
77571;SDS011;67214;47.454;18.966;2023-06-10T12:17:34;10.65;;;9.75;;
77571;SDS011;67214;47.454;18.966;2023-06-10T12:20:02;11.53;;;10.50;;
77571;SDS011;67214;47.454;18.966;2023-06-10T12:22:41;11.80;;;10.60;;
77571;SDS011;67214;47.454;18.966;2023-06-10T12:25:10;11.50;;;10.40;;
77571;SDS011;67214;47.454;18.966;2023-06-10T12:27:40;8.10;;;7.30;;
77571;SDS011;67214;47.454;18.966;2023-06-10T12:30:09;7.97;;;7.28;;
77571;SDS011;67214;47.454;18.966;2023-06-10T12:32:40;9.35;;;7.87;;
77571;SDS011;67214;47.454;18.966;2023-06-10T12:35:12;9.18;;;8.38;;
77571;SDS011;67214;47.454;18.966;2023-06-10T12:37:56;48.52;;;18.87;;
77571;SDS011;67214;47.454;18.966;2023-06-10T12:40:33;10.23;;;7.85;;
77571;SDS011;67214;47.454;18.966;2023-06-10T12:43:03;6.65;;;5.83;;
77571;SDS011;67214;47.454;18.966;2023-06-10T12:45:31;6.30;;;5.70;;
77571;SDS011;67214;47.454;18.966;2023-06-10T12:48:21;6.17;;;5.67;;
77571;SDS011;67214;47.454;18.966;2023-06-10T12:50:56;13.30;;;6.75;;
77571;SDS011;67214;47.454;18.966;2023-06-10T12:53:25;4.65;;;4.20;;
77571;SDS011;67214;47.454;18.966;2023-06-10T12:55:53;4.67;;;4.28;;
77571;SDS011;67214;47.454;18.966;2023-06-10T12:58:20;4.12;;;3.72;;
77571;SDS011;67214;47.454;18.966;2023-06-10T13:00:48;4.08;;;3.77;;
77571;SDS011;67214;47.454;18.966;2023-06-10T13:03:18;5.80;;;3.87;;
77571;SDS011;67214;47.454;18.966;2023-06-10T13:05:46;3.42;;;3.12;;
77571;SDS011;67214;47.454;18.966;2023-06-10T13:08:14;3.77;;;3.45;;
77571;SDS011;67214;47.454;18.966;2023-06-10T13:10:41;4.15;;;3.75;;
77571;SDS011;67214;47.454;18.966;2023-06-10T13:13:09;5.08;;;3.95;;
77571;SDS011;67214;47.454;18.966;2023-06-10T13:15:36;4.10;;;3.80;;
77571;SDS011;67214;47.454;18.966;2023-06-10T13:18:04;4.80;;;4.40;;
77571;SDS011;67214;47.454;18.966;2023-06-10T13:20:31;4.65;;;4.22;;
77571;SDS011;67214;47.454;18.966;2023-06-10T13:22:59;4.30;;;3.90;;
77571;SDS011;67214;47.454;18.966;2023-06-10T13:25:27;4.05;;;3.55;;
77571;SDS011;67214;47.454;18.966;2023-06-10T13:27:54;3.40;;;3.10;;
77571;SDS011;67214;47.454;18.966;2023-06-10T13:30:22;6.17;;;3.52;;
77571;SDS011;67214;47.454;18.966;2023-06-10T13:32:50;4.47;;;4.08;;
77571;SDS011;67214;47.454;18.966;2023-06-10T13:35:17;3.33;;;2.95;;
77571;SDS011;67214;47.454;18.966;2023-06-10T13:37:45;3.65;;;3.35;;
77571;SDS011;67214;47.454;18.966;2023-06-10T13:40:12;4.60;;;3.22;;
77571;SDS011;67214;47.454;18.966;2023-06-10T13:42:39;3.90;;;3.60;;
77571;SDS011;67214;47.454;18.966;2023-06-10T13:45:07;4.62;;;3.45;;
77571;SDS011;67214;47.454;18.966;2023-06-10T13:47:35;4.00;;;3.15;;
77571;SDS011;67214;47.454;18.966;2023-06-10T13:50:02;3.58;;;3.22;;
77571;SDS011;67214;47.454;18.966;2023-06-10T13:52:30;5.15;;;3.27;;
77571;SDS011;67214;47.454;18.966;2023-06-10T13:54:57;6.17;;;3.10;;
77571;SDS011;67214;47.454;18.966;2023-06-10T13:57:25;3.80;;;2.90;;
77571;SDS011;67214;47.454;18.966;2023-06-10T13:59:52;3.83;;;3.25;;
77571;SDS011;67214;47.454;18.966;2023-06-10T14:02:21;4.90;;;3.55;;
77571;SDS011;67214;47.454;18.966;2023-06-10T14:04:49;5.85;;;3.80;;
77571;SDS011;67214;47.454;18.966;2023-06-10T14:07:16;4.47;;;4.08;;
77571;SDS011;67214;47.454;18.966;2023-06-10T14:09:43;5.78;;;4.42;;
77571;SDS011;67214;47.454;18.966;2023-06-10T14:12:11;5.12;;;4.72;;
77571;SDS011;67214;47.454;18.966;2023-06-10T14:14:39;5.67;;;5.17;;
77571;SDS011;67214;47.454;18.966;2023-06-10T14:17:07;5.70;;;5.20;;
77571;SDS011;67214;47.454;18.966;2023-06-10T14:19:34;6.12;;;4.67;;
77571;SDS011;67214;47.454;18.966;2023-06-10T14:22:01;5.45;;;4.95;;
77571;SDS011;67214;47.454;18.966;2023-06-10T14:24:29;4.83;;;4.37;;
77571;SDS011;67214;47.454;18.966;2023-06-10T14:26:56;5.10;;;4.70;;
77571;SDS011;67214;47.454;18.966;2023-06-10T14:29:24;4.60;;;4.20;;
77571;SDS011;67214;47.454;18.966;2023-06-10T14:31:53;4.45;;;4.05;;
77571;SDS011;67214;47.454;18.966;2023-06-10T14:34:21;4.47;;;4.15;;
77571;SDS011;67214;47.454;18.966;2023-06-10T14:36:50;4.40;;;4.00;;
77571;SDS011;67214;47.454;18.966;2023-06-10T14:39:18;3.98;;;3.67;;
77571;SDS011;67214;47.454;18.966;2023-06-10T14:41:45;3.67;;;3.37;;
77571;SDS011;67214;47.454;18.966;2023-06-10T14:44:13;4.55;;;3.10;;
77571;SDS011;67214;47.454;18.966;2023-06-10T14:46:40;4.85;;;2.90;;
77571;SDS011;67214;47.454;18.966;2023-06-10T14:49:08;3.70;;;3.40;;
77571;SDS011;67214;47.454;18.966;2023-06-10T14:51:35;3.62;;;3.33;;
77571;SDS011;67214;47.454;18.966;2023-06-10T14:54:03;4.12;;;3.55;;